sensor_id;sensor_type;location;lat;lon;timestamp;pressure;altitude;pressure_sealevel;temperature
20289;BMP180;10303;51.960;8.372;2024-02-15T00:00:16;100569.00;;;15.60
20289;BMP180;10303;51.960;8.372;2024-02-15T00:02:45;100583.00;;;15.60
20289;BMP180;10303;51.960;8.372;2024-02-15T00:05:29;100579.00;;;15.60
20289;BMP180;10303;51.960;8.372;2024-02-15T00:07:55;100587.00;;;15.60
20289;BMP180;10303;51.960;8.372;2024-02-15T00:10:21;100591.00;;;15.60
20289;BMP180;10303;51.960;8.372;2024-02-15T00:12:48;100594.00;;;15.60
20289;BMP180;10303;51.960;8.372;2024-02-15T00:15:16;100586.00;;;15.60
20289;BMP180;10303;51.960;8.372;2024-02-15T00:17:42;100592.00;;;15.60
20289;BMP180;10303;51.960;8.372;2024-02-15T00:20:08;100592.00;;;15.70
20289;BMP180;10303;51.960;8.372;2024-02-15T00:22:38;100588.00;;;15.60
20289;BMP180;10303;51.960;8.372;2024-02-15T00:25:07;100598.00;;;15.60
20289;BMP180;10303;51.960;8.372;2024-02-15T00:27:36;100588.00;;;15.60
20289;BMP180;10303;51.960;8.372;2024-02-15T00:30:03;100593.00;;;15.60
20289;BMP180;10303;51.960;8.372;2024-02-15T00:32:30;100588.00;;;15.60
20289;BMP180;10303;51.960;8.372;2024-02-15T00:34:56;100580.00;;;15.60
20289;BMP180;10303;51.960;8.372;2024-02-15T00:37:22;100586.00;;;15.60
20289;BMP180;10303;51.960;8.372;2024-02-15T00:39:48;100574.00;;;15.60
20289;BMP180;10303;51.960;8.372;2024-02-15T00:42:14;100587.00;;;15.60
20289;BMP180;10303;51.960;8.372;2024-02-15T00:44:41;100587.00;;;15.60
20289;BMP180;10303;51.960;8.372;2024-02-15T00:47:09;100574.00;;;15.60
20289;BMP180;10303;51.960;8.372;2024-02-15T00:49:36;100583.00;;;15.60
20289;BMP180;10303;51.960;8.372;2024-02-15T00:52:02;100579.00;;;15.60
20289;BMP180;10303;51.960;8.372;2024-02-15T00:54:27;100595.00;;;15.60
20289;BMP180;10303;51.960;8.372;2024-02-15T00:56:53;100589.00;;;15.60
20289;BMP180;10303;51.960;8.372;2024-02-15T00:59:19;100590.00;;;15.60
20289;BMP180;10303;51.960;8.372;2024-02-15T01:01:45;100588.00;;;15.60
20289;BMP180;10303;51.960;8.372;2024-02-15T01:04:12;100594.00;;;15.60
20289;BMP180;10303;51.960;8.372;2024-02-15T01:06:38;100591.00;;;15.60
20289;BMP180;10303;51.960;8.372;2024-02-15T01:09:03;100592.00;;;15.60
20289;BMP180;10303;51.960;8.372;2024-02-15T01:11:30;100593.00;;;15.60
20289;BMP180;10303;51.960;8.372;2024-02-15T01:14:01;100578.00;;;15.60
20289;BMP180;10303;51.960;8.372;2024-02-15T01:16:27;100593.00;;;15.60
20289;BMP180;10303;51.960;8.372;2024-02-15T01:18:53;100590.00;;;15.60
20289;BMP180;10303;51.960;8.372;2024-02-15T01:21:19;100601.00;;;15.60
20289;BMP180;10303;51.960;8.372;2024-02-15T01:23:45;100597.00;;;15.60
20289;BMP180;10303;51.960;8.372;2024-02-15T01:26:12;100597.00;;;15.60
20289;BMP180;10303;51.960;8.372;2024-02-15T01:28:39;100602.00;;;15.60
20289;BMP180;10303;51.960;8.372;2024-02-15T01:31:08;100596.00;;;15.60
20289;BMP180;10303;51.960;8.372;2024-02-15T01:33:37;100583.00;;;15.60
20289;BMP180;10303;51.960;8.372;2024-02-15T01:36:04;100579.00;;;15.60
20289;BMP180;10303;51.960;8.372;2024-02-15T01:38:30;100601.00;;;15.60
20289;BMP180;10303;51.960;8.372;2024-02-15T01:40:56;100590.00;;;15.60
20289;BMP180;10303;51.960;8.372;2024-02-15T01:43:22;100600.00;;;15.60
20289;BMP180;10303;51.960;8.372;2024-02-15T01:45:48;100597.00;;;15.60
20289;BMP180;10303;51.960;8.372;2024-02-15T01:48:17;100593.00;;;15.60
20289;BMP180;10303;51.960;8.372;2024-02-15T01:50:44;100591.00;;;15.60
20289;BMP180;10303;51.960;8.372;2024-02-15T01:53:11;100600.00;;;15.60
20289;BMP180;10303;51.960;8.372;2024-02-15T01:55:38;100594.00;;;15.60
20289;BMP180;10303;51.960;8.372;2024-02-15T01:58:05;100603.00;;;15.60
20289;BMP180;10303;51.960;8.372;2024-02-15T02:00:32;100600.00;;;15.50
20289;BMP180;10303;51.960;8.372;2024-02-15T02:02:59;100598.00;;;15.60
20289;BMP180;10303;51.960;8.372;2024-02-15T02:05:28;100602.00;;;15.60
20289;BMP180;10303;51.960;8.372;2024-02-15T02:07:57;100596.00;;;15.50
20289;BMP180;10303;51.960;8.372;2024-02-15T02:10:30;100594.00;;;15.60
20289;BMP180;10303;51.960;8.372;2024-02-15T02:13:00;100597.00;;;15.60
20289;BMP180;10303;51.960;8.372;2024-02-15T02:15:28;100596.00;;;15.60
20289;BMP180;10303;51.960;8.372;2024-02-15T02:17:58;100601.00;;;15.60
20289;BMP180;10303;51.960;8.372;2024-02-15T02:20:26;100590.00;;;15.60
20289;BMP180;10303;51.960;8.372;2024-02-15T02:22:54;100581.00;;;15.60
20289;BMP180;10303;51.960;8.372;2024-02-15T02:25:22;100589.00;;;15.60
20289;BMP180;10303;51.960;8.372;2024-02-15T02:27:52;100587.00;;;15.60
20289;BMP180;10303;51.960;8.372;2024-02-15T02:30:19;100588.00;;;15.60
20289;BMP180;10303;51.960;8.372;2024-02-15T02:32:48;100581.00;;;15.60
20289;BMP180;10303;51.960;8.372;2024-02-15T02:35:14;100579.00;;;15.60
20289;BMP180;10303;51.960;8.372;2024-02-15T02:37:42;100583.00;;;15.60
20289;BMP180;10303;51.960;8.372;2024-02-15T02:40:09;100582.00;;;15.60
20289;BMP180;10303;51.960;8.372;2024-02-15T02:42:56;100589.00;;;15.60
20289;BMP180;10303;51.960;8.372;2024-02-15T02:45:25;100589.00;;;15.60
20289;BMP180;10303;51.960;8.372;2024-02-15T02:47:52;100592.00;;;15.60
20289;BMP180;10303;51.960;8.372;2024-02-15T02:50:20;100577.00;;;15.60
20289;BMP180;10303;51.960;8.372;2024-02-15T02:52:46;100580.00;;;15.70
20289;BMP180;10303;51.960;8.372;2024-02-15T02:55:15;100579.00;;;15.70
20289;BMP180;10303;51.960;8.372;2024-02-15T02:57:41;100590.00;;;15.70
20289;BMP180;10303;51.960;8.372;2024-02-15T03:00:13;100580.00;;;15.60
20289;BMP180;10303;51.960;8.372;2024-02-15T03:02:42;100588.00;;;15.70
20289;BMP180;10303;51.960;8.372;2024-02-15T03:05:09;100577.00;;;15.70
20289;BMP180;10303;51.960;8.372;2024-02-15T03:07:37;100579.00;;;15.70
20289;BMP180;10303;51.960;8.372;2024-02-15T03:10:06;100581.00;;;15.70
20289;BMP180;10303;51.960;8.372;2024-02-15T03:12:37;100578.00;;;15.70
20289;BMP180;10303;51.960;8.372;2024-02-15T03:15:07;100566.00;;;15.70
20289;BMP180;10303;51.960;8.372;2024-02-15T03:17:41;100579.00;;;15.70
20289;BMP180;10303;51.960;8.372;2024-02-15T03:20:11;100589.00;;;15.70
20289;BMP180;10303;51.960;8.372;2024-02-15T03:23:04;100578.00;;;15.70
20289;BMP180;10303;51.960;8.372;2024-02-15T03:25:30;100569.00;;;15.70
20289;BMP180;10303;51.960;8.372;2024-02-15T03:27:58;100570.00;;;15.70
20289;BMP180;10303;51.960;8.372;2024-02-15T03:30:26;100570.00;;;15.70
20289;BMP180;10303;51.960;8.372;2024-02-15T03:32:53;100576.00;;;15.80
20289;BMP180;10303;51.960;8.372;2024-02-15T03:35:22;100573.00;;;15.80
20289;BMP180;10303;51.960;8.372;2024-02-15T03:37:49;100568.00;;;15.80
20289;BMP180;10303;51.960;8.372;2024-02-15T03:40:22;100571.00;;;15.80
20289;BMP180;10303;51.960;8.372;2024-02-15T03:42:48;100567.00;;;15.80
20289;BMP180;10303;51.960;8.372;2024-02-15T03:45:15;100575.00;;;15.80
20289;BMP180;10303;51.960;8.372;2024-02-15T03:47:41;100575.00;;;15.80
20289;BMP180;10303;51.960;8.372;2024-02-15T03:50:08;100578.00;;;15.80
20289;BMP180;10303;51.960;8.372;2024-02-15T03:52:38;100581.00;;;15.80
20289;BMP180;10303;51.960;8.372;2024-02-15T03:55:05;100573.00;;;15.80
20289;BMP180;10303;51.960;8.372;2024-02-15T03:57:33;100583.00;;;15.80
20289;BMP180;10303;51.960;8.372;2024-02-15T04:00:00;100583.00;;;15.80
20289;BMP180;10303;51.960;8.372;2024-02-15T04:02:26;100588.00;;;15.80
20289;BMP180;10303;51.960;8.372;2024-02-15T04:04:53;100587.00;;;15.80
20289;BMP180;10303;51.960;8.372;2024-02-15T04:07:21;100590.00;;;15.80
20289;BMP180;10303;51.960;8.372;2024-02-15T04:09:48;100592.00;;;15.80
20289;BMP180;10303;51.960;8.372;2024-02-15T04:12:14;100588.00;;;15.80
20289;BMP180;10303;51.960;8.372;2024-02-15T04:14:41;100583.00;;;15.80
20289;BMP180;10303;51.960;8.372;2024-02-15T04:17:07;100581.00;;;15.80
20289;BMP180;10303;51.960;8.372;2024-02-15T04:19:33;100568.00;;;15.80
20289;BMP180;10303;51.960;8.372;2024-02-15T04:22:00;100581.00;;;15.90
20289;BMP180;10303;51.960;8.372;2024-02-15T04:24:36;100575.00;;;15.80
20289;BMP180;10303;51.960;8.372;2024-02-15T04:27:09;100579.00;;;15.80
20289;BMP180;10303;51.960;8.372;2024-02-15T04:29:40;100574.00;;;15.90
20289;BMP180;10303;51.960;8.372;2024-02-15T04:32:08;100569.00;;;15.90
20289;BMP180;10303;51.960;8.372;2024-02-15T04:34:37;100573.00;;;15.90
20289;BMP180;10303;51.960;8.372;2024-02-15T04:37:04;100572.00;;;15.90
20289;BMP180;10303;51.960;8.372;2024-02-15T04:39:34;100574.00;;;15.90
20289;BMP180;10303;51.960;8.372;2024-02-15T04:42:04;100576.00;;;15.90
20289;BMP180;10303;51.960;8.372;2024-02-15T04:44:32;100573.00;;;15.90
20289;BMP180;10303;51.960;8.372;2024-02-15T04:47:01;100573.00;;;15.90
20289;BMP180;10303;51.960;8.372;2024-02-15T04:49:31;100578.00;;;15.90
20289;BMP180;10303;51.960;8.372;2024-02-15T04:51:57;100583.00;;;15.90
20289;BMP180;10303;51.960;8.372;2024-02-15T04:54:24;100593.00;;;15.90
20289;BMP180;10303;51.960;8.372;2024-02-15T04:56:50;100589.00;;;15.90
20289;BMP180;10303;51.960;8.372;2024-02-15T04:59:20;100589.00;;;15.90
20289;BMP180;10303;51.960;8.372;2024-02-15T05:01:47;100587.00;;;15.90
20289;BMP180;10303;51.960;8.372;2024-02-15T05:04:15;100580.00;;;15.90
20289;BMP180;10303;51.960;8.372;2024-02-15T05:06:41;100565.00;;;15.90
20289;BMP180;10303;51.960;8.372;2024-02-15T05:09:07;100563.00;;;15.80
20289;BMP180;10303;51.960;8.372;2024-02-15T05:11:38;100568.00;;;15.80
20289;BMP180;10303;51.960;8.372;2024-02-15T05:14:07;100568.00;;;15.80
20289;BMP180;10303;51.960;8.372;2024-02-15T05:16:34;100566.00;;;15.80
20289;BMP180;10303;51.960;8.372;2024-02-15T05:19:00;100567.00;;;15.80
20289;BMP180;10303;51.960;8.372;2024-02-15T05:21:26;100570.00;;;15.80
20289;BMP180;10303;51.960;8.372;2024-02-15T05:23:52;100564.00;;;15.80
20289;BMP180;10303;51.960;8.372;2024-02-15T05:26:19;100564.00;;;15.80
20289;BMP180;10303;51.960;8.372;2024-02-15T05:28:52;100565.00;;;15.80
20289;BMP180;10303;51.960;8.372;2024-02-15T05:31:20;100562.00;;;15.80
20289;BMP180;10303;51.960;8.372;2024-02-15T05:33:47;100559.00;;;15.80
20289;BMP180;10303;51.960;8.372;2024-02-15T05:36:14;100560.00;;;15.80
20289;BMP180;10303;51.960;8.372;2024-02-15T05:38:41;100558.00;;;15.80
20289;BMP180;10303;51.960;8.372;2024-02-15T05:41:07;100564.00;;;15.80
20289;BMP180;10303;51.960;8.372;2024-02-15T05:43:34;100559.00;;;15.70
20289;BMP180;10303;51.960;8.372;2024-02-15T05:46:03;100560.00;;;15.70
20289;BMP180;10303;51.960;8.372;2024-02-15T05:48:30;100541.00;;;15.70
20289;BMP180;10303;51.960;8.372;2024-02-15T05:50:56;100541.00;;;15.70
20289;BMP180;10303;51.960;8.372;2024-02-15T05:53:23;100552.00;;;15.70
20289;BMP180;10303;51.960;8.372;2024-02-15T05:55:50;100550.00;;;15.60
20289;BMP180;10303;51.960;8.372;2024-02-15T05:58:16;100555.00;;;15.60
20289;BMP180;10303;51.960;8.372;2024-02-15T06:00:43;100562.00;;;15.60
20289;BMP180;10303;51.960;8.372;2024-02-15T06:03:17;100554.00;;;15.60
20289;BMP180;10303;51.960;8.372;2024-02-15T06:05:44;100540.00;;;15.60
20289;BMP180;10303;51.960;8.372;2024-02-15T06:08:11;100544.00;;;15.60
20289;BMP180;10303;51.960;8.372;2024-02-15T06:10:40;100544.00;;;15.60
20289;BMP180;10303;51.960;8.372;2024-02-15T06:13:07;100538.00;;;15.60
20289;BMP180;10303;51.960;8.372;2024-02-15T06:15:35;100542.00;;;15.60
20289;BMP180;10303;51.960;8.372;2024-02-15T06:18:02;100545.00;;;15.60
20289;BMP180;10303;51.960;8.372;2024-02-15T06:20:34;100549.00;;;15.50
20289;BMP180;10303;51.960;8.372;2024-02-15T06:23:02;100546.00;;;15.60
20289;BMP180;10303;51.960;8.372;2024-02-15T06:25:32;100539.00;;;15.50
20289;BMP180;10303;51.960;8.372;2024-02-15T06:27:58;100545.00;;;15.60
20289;BMP180;10303;51.960;8.372;2024-02-15T06:30:28;100545.00;;;15.50
20289;BMP180;10303;51.960;8.372;2024-02-15T06:33:13;100542.00;;;15.50
20289;BMP180;10303;51.960;8.372;2024-02-15T06:35:57;100543.00;;;15.50
20289;BMP180;10303;51.960;8.372;2024-02-15T06:38:42;100541.00;;;15.50
20289;BMP180;10303;51.960;8.372;2024-02-15T06:41:26;100543.00;;;15.50
20289;BMP180;10303;51.960;8.372;2024-02-15T06:43:53;100541.00;;;15.50
20289;BMP180;10303;51.960;8.372;2024-02-15T06:46:21;100543.00;;;15.50
20289;BMP180;10303;51.960;8.372;2024-02-15T06:48:47;100535.00;;;15.50
20289;BMP180;10303;51.960;8.372;2024-02-15T06:51:13;100540.00;;;15.50
20289;BMP180;10303;51.960;8.372;2024-02-15T06:53:41;100539.00;;;15.50
20289;BMP180;10303;51.960;8.372;2024-02-15T06:56:10;100541.00;;;15.50
20289;BMP180;10303;51.960;8.372;2024-02-15T06:58:37;100525.00;;;15.50
20289;BMP180;10303;51.960;8.372;2024-02-15T07:01:03;100528.00;;;15.50
20289;BMP180;10303;51.960;8.372;2024-02-15T07:03:29;100526.00;;;15.50
20289;BMP180;10303;51.960;8.372;2024-02-15T07:05:55;100530.00;;;15.50
20289;BMP180;10303;51.960;8.372;2024-02-15T07:08:22;100531.00;;;15.50
20289;BMP180;10303;51.960;8.372;2024-02-15T07:10:51;100528.00;;;15.50
20289;BMP180;10303;51.960;8.372;2024-02-15T07:13:19;100525.00;;;15.50
20289;BMP180;10303;51.960;8.372;2024-02-15T07:15:45;100517.00;;;15.50
20289;BMP180;10303;51.960;8.372;2024-02-15T07:18:15;100511.00;;;15.40
20289;BMP180;10303;51.960;8.372;2024-02-15T07:20:42;100505.00;;;15.50
20289;BMP180;10303;51.960;8.372;2024-02-15T07:23:08;100522.00;;;15.50
20289;BMP180;10303;51.960;8.372;2024-02-15T07:25:34;100518.00;;;15.50
20289;BMP180;10303;51.960;8.372;2024-02-15T07:28:01;100526.00;;;15.50
20289;BMP180;10303;51.960;8.372;2024-02-15T07:30:27;100533.00;;;15.50
20289;BMP180;10303;51.960;8.372;2024-02-15T07:32:53;100533.00;;;15.50
20289;BMP180;10303;51.960;8.372;2024-02-15T07:35:19;100528.00;;;15.50
20289;BMP180;10303;51.960;8.372;2024-02-15T07:37:53;100541.00;;;15.50
20289;BMP180;10303;51.960;8.372;2024-02-15T07:40:22;100546.00;;;15.50
20289;BMP180;10303;51.960;8.372;2024-02-15T07:42:49;100541.00;;;15.50
20289;BMP180;10303;51.960;8.372;2024-02-15T07:45:15;100546.00;;;15.60
20289;BMP180;10303;51.960;8.372;2024-02-15T07:47:41;100550.00;;;15.60
20289;BMP180;10303;51.960;8.372;2024-02-15T07:50:07;100552.00;;;15.60
20289;BMP180;10303;51.960;8.372;2024-02-15T07:52:35;100555.00;;;15.60
20289;BMP180;10303;51.960;8.372;2024-02-15T07:55:01;100550.00;;;15.60
20289;BMP180;10303;51.960;8.372;2024-02-15T07:57:33;100553.00;;;15.70
20289;BMP180;10303;51.960;8.372;2024-02-15T08:00:00;100556.00;;;15.70
20289;BMP180;10303;51.960;8.372;2024-02-15T08:02:26;100544.00;;;15.70
20289;BMP180;10303;51.960;8.372;2024-02-15T08:04:54;100543.00;;;15.70
20289;BMP180;10303;51.960;8.372;2024-02-15T08:07:20;100534.00;;;15.70
20289;BMP180;10303;51.960;8.372;2024-02-15T08:09:47;100542.00;;;15.70
20289;BMP180;10303;51.960;8.372;2024-02-15T08:12:16;100528.00;;;15.70
20289;BMP180;10303;51.960;8.372;2024-02-15T08:14:44;100526.00;;;15.70
20289;BMP180;10303;51.960;8.372;2024-02-15T08:17:10;100530.00;;;15.70
20289;BMP180;10303;51.960;8.372;2024-02-15T08:19:40;100525.00;;;15.70
20289;BMP180;10303;51.960;8.372;2024-02-15T08:22:07;100521.00;;;15.70
20289;BMP180;10303;51.960;8.372;2024-02-15T08:24:33;100523.00;;;15.70
20289;BMP180;10303;51.960;8.372;2024-02-15T08:26:59;100517.00;;;15.80
20289;BMP180;10303;51.960;8.372;2024-02-15T08:29:25;100506.00;;;15.70
20289;BMP180;10303;51.960;8.372;2024-02-15T08:31:51;100517.00;;;15.70
20289;BMP180;10303;51.960;8.372;2024-02-15T08:34:17;100517.00;;;15.70
20289;BMP180;10303;51.960;8.372;2024-02-15T08:36:45;100520.00;;;15.70
20289;BMP180;10303;51.960;8.372;2024-02-15T08:39:13;100516.00;;;15.70
20289;BMP180;10303;51.960;8.372;2024-02-15T08:41:42;100527.00;;;15.70
20289;BMP180;10303;51.960;8.372;2024-02-15T08:44:08;100521.00;;;15.70
20289;BMP180;10303;51.960;8.372;2024-02-15T08:46:37;100533.00;;;15.70
20289;BMP180;10303;51.960;8.372;2024-02-15T08:49:03;100528.00;;;15.80
20289;BMP180;10303;51.960;8.372;2024-02-15T08:51:29;100527.00;;;15.70
20289;BMP180;10303;51.960;8.372;2024-02-15T08:53:56;100529.00;;;15.70
20289;BMP180;10303;51.960;8.372;2024-02-15T08:56:22;100516.00;;;15.70
20289;BMP180;10303;51.960;8.372;2024-02-15T08:58:50;100518.00;;;15.70
20289;BMP180;10303;51.960;8.372;2024-02-15T09:01:16;100521.00;;;15.70
20289;BMP180;10303;51.960;8.372;2024-02-15T09:03:42;100515.00;;;15.70
20289;BMP180;10303;51.960;8.372;2024-02-15T09:06:08;100500.00;;;15.70
20289;BMP180;10303;51.960;8.372;2024-02-15T09:08:34;100500.00;;;15.70
20289;BMP180;10303;51.960;8.372;2024-02-15T09:11:00;100504.00;;;15.70
20289;BMP180;10303;51.960;8.372;2024-02-15T09:13:26;100504.00;;;15.70
20289;BMP180;10303;51.960;8.372;2024-02-15T09:15:52;100506.00;;;15.70
20289;BMP180;10303;51.960;8.372;2024-02-15T09:18:18;100509.00;;;15.70
20289;BMP180;10303;51.960;8.372;2024-02-15T09:20:47;100506.00;;;15.80
20289;BMP180;10303;51.960;8.372;2024-02-15T09:23:14;100513.00;;;15.80
20289;BMP180;10303;51.960;8.372;2024-02-15T09:25:41;100507.00;;;15.80
20289;BMP180;10303;51.960;8.372;2024-02-15T09:28:10;100519.00;;;15.80
20289;BMP180;10303;51.960;8.372;2024-02-15T09:30:36;100513.00;;;15.80
20289;BMP180;10303;51.960;8.372;2024-02-15T09:33:04;100517.00;;;15.90
20289;BMP180;10303;51.960;8.372;2024-02-15T09:35:31;100530.00;;;15.90
20289;BMP180;10303;51.960;8.372;2024-02-15T09:37:57;100532.00;;;15.90
20289;BMP180;10303;51.960;8.372;2024-02-15T09:40:23;100527.00;;;15.90
20289;BMP180;10303;51.960;8.372;2024-02-15T09:42:55;100539.00;;;15.90
20289;BMP180;10303;51.960;8.372;2024-02-15T09:45:21;100536.00;;;15.90
20289;BMP180;10303;51.960;8.372;2024-02-15T09:47:50;100540.00;;;15.90
20289;BMP180;10303;51.960;8.372;2024-02-15T09:50:18;100532.00;;;15.90
20289;BMP180;10303;51.960;8.372;2024-02-15T09:52:50;100540.00;;;15.90
20289;BMP180;10303;51.960;8.372;2024-02-15T09:55:17;100529.00;;;15.90
20289;BMP180;10303;51.960;8.372;2024-02-15T09:57:45;100536.00;;;15.90
20289;BMP180;10303;51.960;8.372;2024-02-15T10:00:15;100542.00;;;15.90
20289;BMP180;10303;51.960;8.372;2024-02-15T10:02:47;100535.00;;;15.90
20289;BMP180;10303;51.960;8.372;2024-02-15T10:05:13;100529.00;;;16.00
20289;BMP180;10303;51.960;8.372;2024-02-15T10:07:41;100535.00;;;16.00
20289;BMP180;10303;51.960;8.372;2024-02-15T10:10:20;100538.00;;;15.90
20289;BMP180;10303;51.960;8.372;2024-02-15T10:12:51;100540.00;;;15.90
20289;BMP180;10303;51.960;8.372;2024-02-15T10:15:37;100540.00;;;15.90
20289;BMP180;10303;51.960;8.372;2024-02-15T10:18:09;100542.00;;;16.00
20289;BMP180;10303;51.960;8.372;2024-02-15T10:20:40;100542.00;;;16.00
20289;BMP180;10303;51.960;8.372;2024-02-15T10:23:16;100545.00;;;16.00
20289;BMP180;10303;51.960;8.372;2024-02-15T10:25:44;100547.00;;;16.00
20289;BMP180;10303;51.960;8.372;2024-02-15T10:28:12;100545.00;;;16.00
20289;BMP180;10303;51.960;8.372;2024-02-15T10:30:44;100545.00;;;16.00
20289;BMP180;10303;51.960;8.372;2024-02-15T10:33:28;100552.00;;;16.00
20289;BMP180;10303;51.960;8.372;2024-02-15T10:36:10;100551.00;;;16.00
20289;BMP180;10303;51.960;8.372;2024-02-15T10:38:37;100546.00;;;16.00
20289;BMP180;10303;51.960;8.372;2024-02-15T10:41:05;100539.00;;;16.00
20289;BMP180;10303;51.960;8.372;2024-02-15T10:43:33;100551.00;;;16.00
20289;BMP180;10303;51.960;8.372;2024-02-15T10:46:00;100551.00;;;16.00
20289;BMP180;10303;51.960;8.372;2024-02-15T10:48:27;100551.00;;;16.00
20289;BMP180;10303;51.960;8.372;2024-02-15T10:50:59;100543.00;;;16.00
20289;BMP180;10303;51.960;8.372;2024-02-15T10:53:31;100546.00;;;16.00
20289;BMP180;10303;51.960;8.372;2024-02-15T10:56:26;100545.00;;;16.00
20289;BMP180;10303;51.960;8.372;2024-02-15T10:59:37;100546.00;;;16.00
20289;BMP180;10303;51.960;8.372;2024-02-15T11:03:23;100536.00;;;16.00
20289;BMP180;10303;51.960;8.372;2024-02-15T11:05:36;100545.00;;;16.00
20289;BMP180;10303;51.960;8.372;2024-02-15T11:08:08;100535.00;;;16.00
20289;BMP180;10303;51.960;8.372;2024-02-15T11:10:36;100536.00;;;16.00
20289;BMP180;10303;51.960;8.372;2024-02-15T11:13:03;100534.00;;;16.00
20289;BMP180;10303;51.960;8.372;2024-02-15T11:18:02;100527.00;;;16.00
20289;BMP180;10303;51.960;8.372;2024-02-15T11:23:03;100526.00;;;16.00
20289;BMP180;10303;51.960;8.372;2024-02-15T11:25:37;100524.00;;;16.00
20289;BMP180;10303;51.960;8.372;2024-02-15T11:30:56;100521.00;;;16.00
20289;BMP180;10303;51.960;8.372;2024-02-15T11:36:09;100506.00;;;15.90
20289;BMP180;10303;51.960;8.372;2024-02-15T11:38:39;100482.00;;;15.90
20289;BMP180;10303;51.960;8.372;2024-02-15T11:41:10;100470.00;;;15.90
20289;BMP180;10303;51.960;8.372;2024-02-15T11:43:51;100466.00;;;15.90
20289;BMP180;10303;51.960;8.372;2024-02-15T11:46:23;100464.00;;;15.90
20289;BMP180;10303;51.960;8.372;2024-02-15T11:48:58;100459.00;;;15.90
20289;BMP180;10303;51.960;8.372;2024-02-15T11:51:34;100467.00;;;15.90
20289;BMP180;10303;51.960;8.372;2024-02-15T11:54:09;100461.00;;;15.90
20289;BMP180;10303;51.960;8.372;2024-02-15T11:59:13;100451.00;;;15.90
20289;BMP180;10303;51.960;8.372;2024-02-15T12:01:58;100436.00;;;15.90
20289;BMP180;10303;51.960;8.372;2024-02-15T12:04:46;100431.00;;;15.90
20289;BMP180;10303;51.960;8.372;2024-02-15T12:07:31;100425.00;;;15.90
20289;BMP180;10303;51.960;8.372;2024-02-15T12:10:20;100422.00;;;15.90
20289;BMP180;10303;51.960;8.372;2024-02-15T12:13:05;100429.00;;;15.90
20289;BMP180;10303;51.960;8.372;2024-02-15T12:15:59;100429.00;;;15.90
20289;BMP180;10303;51.960;8.372;2024-02-15T12:18:46;100443.00;;;16.00
20289;BMP180;10303;51.960;8.372;2024-02-15T12:21:24;100432.00;;;15.90
20289;BMP180;10303;51.960;8.372;2024-02-15T12:23:51;100445.00;;;16.00
20289;BMP180;10303;51.960;8.372;2024-02-15T12:26:21;100428.00;;;16.00
20289;BMP180;10303;51.960;8.372;2024-02-15T12:28:53;100438.00;;;16.00
20289;BMP180;10303;51.960;8.372;2024-02-15T12:31:24;100423.00;;;16.10
20289;BMP180;10303;51.960;8.372;2024-02-15T12:34:04;100422.00;;;16.10
20289;BMP180;10303;51.960;8.372;2024-02-15T12:36:34;100428.00;;;16.20
20289;BMP180;10303;51.960;8.372;2024-02-15T12:39:04;100421.00;;;16.20
20289;BMP180;10303;51.960;8.372;2024-02-15T12:41:41;100423.00;;;16.30
20289;BMP180;10303;51.960;8.372;2024-02-15T12:44:16;100414.00;;;16.30
20289;BMP180;10303;51.960;8.372;2024-02-15T12:46:43;100410.00;;;16.40
20289;BMP180;10303;51.960;8.372;2024-02-15T12:49:28;100412.00;;;16.40
20289;BMP180;10303;51.960;8.372;2024-02-15T12:52:33;100410.00;;;16.50
20289;BMP180;10303;51.960;8.372;2024-02-15T12:55:11;100411.00;;;16.50
20289;BMP180;10303;51.960;8.372;2024-02-15T12:57:37;100403.00;;;16.60
20289;BMP180;10303;51.960;8.372;2024-02-15T13:00:08;100410.00;;;16.60
20289;BMP180;10303;51.960;8.372;2024-02-15T13:02:37;100411.00;;;16.60
20289;BMP180;10303;51.960;8.372;2024-02-15T13:05:05;100402.00;;;16.60
20289;BMP180;10303;51.960;8.372;2024-02-15T13:07:34;100397.00;;;16.70
20289;BMP180;10303;51.960;8.372;2024-02-15T13:10:01;100409.00;;;16.70
20289;BMP180;10303;51.960;8.372;2024-02-15T13:12:27;100410.00;;;16.70
20289;BMP180;10303;51.960;8.372;2024-02-15T13:14:54;100399.00;;;16.80
20289;BMP180;10303;51.960;8.372;2024-02-15T13:17:20;100406.00;;;16.80
20289;BMP180;10303;51.960;8.372;2024-02-15T13:19:48;100411.00;;;16.80
20289;BMP180;10303;51.960;8.372;2024-02-15T13:22:15;100404.00;;;16.90
20289;BMP180;10303;51.960;8.372;2024-02-15T13:24:46;100408.00;;;16.90
20289;BMP180;10303;51.960;8.372;2024-02-15T13:27:12;100397.00;;;16.90
20289;BMP180;10303;51.960;8.372;2024-02-15T13:29:38;100387.00;;;16.90
20289;BMP180;10303;51.960;8.372;2024-02-15T13:32:07;100404.00;;;16.90
20289;BMP180;10303;51.960;8.372;2024-02-15T13:34:32;100399.00;;;17.00
20289;BMP180;10303;51.960;8.372;2024-02-15T13:36:59;100393.00;;;17.00
20289;BMP180;10303;51.960;8.372;2024-02-15T13:39:28;100380.00;;;17.00
20289;BMP180;10303;51.960;8.372;2024-02-15T13:42:02;100361.00;;;17.00
20289;BMP180;10303;51.960;8.372;2024-02-15T13:44:28;100361.00;;;17.00
20289;BMP180;10303;51.960;8.372;2024-02-15T13:46:57;100359.00;;;17.00
20289;BMP180;10303;51.960;8.372;2024-02-15T13:49:23;100361.00;;;17.00
20289;BMP180;10303;51.960;8.372;2024-02-15T13:51:49;100359.00;;;17.10
20289;BMP180;10303;51.960;8.372;2024-02-15T13:54:17;100347.00;;;17.10
20289;BMP180;10303;51.960;8.372;2024-02-15T13:56:44;100347.00;;;17.10
20289;BMP180;10303;51.960;8.372;2024-02-15T13:59:10;100344.00;;;17.10
20289;BMP180;10303;51.960;8.372;2024-02-15T14:01:37;100342.00;;;17.20
20289;BMP180;10303;51.960;8.372;2024-02-15T14:04:09;100342.00;;;17.20
20289;BMP180;10303;51.960;8.372;2024-02-15T14:06:35;100340.00;;;17.30
20289;BMP180;10303;51.960;8.372;2024-02-15T14:09:03;100322.00;;;17.30
20289;BMP180;10303;51.960;8.372;2024-02-15T14:11:29;100341.00;;;17.40
20289;BMP180;10303;51.960;8.372;2024-02-15T14:13:55;100339.00;;;17.40
20289;BMP180;10303;51.960;8.372;2024-02-15T14:16:24;100335.00;;;17.40
20289;BMP180;10303;51.960;8.372;2024-02-15T14:18:50;100340.00;;;17.40
20289;BMP180;10303;51.960;8.372;2024-02-15T14:21:17;100326.00;;;17.50